createdAt,value
2018-07-14T00:00:36.121Z,3.97
2018-07-14T00:03:04.254Z,3.43
2018-07-14T00:05:32.370Z,4.20
2018-07-14T00:08:00.494Z,3.73
2018-07-14T00:10:28.702Z,3.67
2018-07-14T00:12:56.837Z,4.00
2018-07-14T00:15:25.005Z,3.77
2018-07-14T00:17:53.141Z,3.87
2018-07-14T00:20:21.260Z,3.90
2018-07-14T00:22:49.393Z,4.03
2018-07-14T00:25:21.984Z,4.47
2018-07-14T00:27:50.097Z,3.80
2018-07-14T00:30:18.252Z,4.37
2018-07-14T00:32:46.428Z,4.10
2018-07-14T00:35:14.542Z,4.20
2018-07-14T00:37:42.662Z,3.87
2018-07-14T00:40:10.959Z,4.10
2018-07-14T00:42:39.095Z,4.13
2018-07-14T00:45:07.814Z,4.17
2018-07-14T00:47:35.949Z,3.70
2018-07-14T00:50:04.110Z,3.93
2018-07-14T00:52:32.261Z,4.53
2018-07-14T00:55:00.444Z,4.17
2018-07-14T00:57:28.576Z,4.23
2018-07-14T00:59:56.693Z,4.13
2018-07-14T01:02:24.832Z,4.03
2018-07-14T01:04:52.958Z,4.43
2018-07-14T01:07:21.081Z,3.90
2018-07-14T01:09:49.209Z,4.20
2018-07-14T01:12:17.397Z,3.57
2018-07-14T01:14:45.510Z,4.33
2018-07-14T01:17:14.390Z,3.93
2018-07-14T01:19:42.508Z,4.10
2018-07-14T01:22:10.621Z,4.40
2018-07-14T01:24:38.750Z,4.27
2018-07-14T01:27:06.890Z,4.60
2018-07-14T01:29:35.009Z,4.73
2018-07-14T01:32:03.137Z,4.13
2018-07-14T01:34:31.257Z,4.27
2018-07-14T01:36:59.377Z,4.40
2018-07-14T01:39:28.124Z,4.07
2018-07-14T01:41:56.246Z,4.27
2018-07-14T01:44:24.376Z,3.80
2018-07-14T01:46:53.537Z,4.67
2018-07-14T01:49:21.658Z,4.47
2018-07-14T01:51:49.786Z,4.50
2018-07-14T01:54:17.989Z,4.53
2018-07-14T01:56:46.108Z,4.37
2018-07-14T01:59:14.225Z,4.60
2018-07-14T02:01:42.409Z,4.53
2018-07-14T02:04:10.532Z,4.10
2018-07-14T02:06:38.648Z,4.33
2018-07-14T02:09:06.790Z,4.00
2018-07-14T02:11:34.974Z,4.17
2018-07-14T02:14:03.248Z,4.07
2018-07-14T02:16:31.376Z,4.03
2018-07-14T02:18:59.501Z,3.73
2018-07-14T02:21:27.629Z,4.27
2018-07-14T02:23:55.829Z,3.90
2018-07-14T02:26:23.945Z,3.97
2018-07-14T02:28:52.108Z,3.90
2018-07-14T02:31:20.206Z,3.70
2018-07-14T02:33:48.316Z,4.13
2018-07-14T02:36:16.436Z,4.07
2018-07-14T02:38:44.574Z,4.03
2018-07-14T02:41:12.688Z,4.90
2018-07-14T02:43:40.802Z,3.87
2018-07-14T02:46:09.792Z,3.77
2018-07-14T02:48:38.488Z,4.10
2018-07-14T02:51:06.681Z,4.00
2018-07-14T02:53:35.845Z,3.70
2018-07-14T02:56:03.982Z,4.20
2018-07-14T02:58:32.142Z,4.40
2018-07-14T03:01:00.294Z,4.43
2018-07-14T03:03:28.429Z,4.33
2018-07-14T03:05:56.554Z,4.30
2018-07-14T03:08:24.724Z,4.13
2018-07-14T03:10:52.919Z,4.37
2018-07-14T03:13:21.041Z,11.30
2018-07-14T03:15:49.177Z,7.80
2018-07-14T03:18:17.308Z,6.30
2018-07-14T03:20:45.421Z,5.83
2018-07-14T03:23:13.556Z,5.00
2018-07-14T03:25:41.668Z,4.63
2018-07-14T03:28:09.789Z,5.40
2018-07-14T03:30:38.397Z,5.40
2018-07-14T03:33:06.531Z,4.93
2018-07-14T03:35:34.641Z,4.97
2018-07-14T03:38:02.793Z,5.37
2018-07-14T03:40:30.905Z,4.53
2018-07-14T03:42:59.033Z,5.30
2018-07-14T03:45:27.166Z,4.90
2018-07-14T03:47:55.283Z,5.20
2018-07-14T03:50:34.334Z,5.57
2018-07-14T03:53:02.459Z,5.00
2018-07-14T03:55:31.293Z,4.73
2018-07-14T03:57:59.434Z,5.40
2018-07-14T04:00:27.561Z,5.10
2018-07-14T04:02:55.681Z,5.20
2018-07-14T04:05:23.818Z,5.10
2018-07-14T04:07:51.951Z,5.50
2018-07-14T04:10:20.167Z,5.80
2018-07-14T04:12:48.650Z,6.20
2018-07-14T04:15:16.778Z,5.03
2018-07-14T04:17:44.900Z,5.30
2018-07-14T04:20:13.036Z,5.50
2018-07-14T04:22:41.166Z,5.80
2018-07-14T04:25:09.304Z,5.93
2018-07-14T04:27:37.438Z,5.77
2018-07-14T04:30:05.579Z,5.73
2018-07-14T04:32:33.691Z,4.80
2018-07-14T04:35:01.904Z,5.40
2018-07-14T04:37:30.033Z,5.23
2018-07-14T04:39:58.150Z,5.53
2018-07-14T04:42:26.321Z,5.33
2018-07-14T04:44:54.426Z,11.90
2018-07-14T04:47:22.564Z,10.53
2018-07-14T04:49:50.717Z,5.67
2018-07-14T04:52:19.022Z,5.50
2018-07-14T04:54:47.152Z,6.13
2018-07-14T04:57:16.120Z,5.60
2018-07-14T04:59:44.247Z,5.60
2018-07-14T05:02:12.371Z,5.73
2018-07-14T05:04:40.490Z,6.37
2018-07-14T05:07:08.620Z,5.63
2018-07-14T05:09:36.745Z,7.40
2018-07-14T05:12:06.405Z,6.80
2018-07-14T05:14:34.523Z,5.97
2018-07-14T05:17:02.644Z,5.90
2018-07-14T05:19:31.141Z,6.80
2018-07-14T05:21:59.262Z,6.30
2018-07-14T05:24:27.386Z,6.13
2018-07-14T05:26:55.517Z,7.10
2018-07-14T05:29:23.648Z,6.40
2018-07-14T05:31:51.764Z,6.73
2018-07-14T05:34:19.919Z,6.20
2018-07-14T05:36:48.066Z,5.80
2018-07-14T05:39:16.208Z,10.10
2018-07-14T05:41:44.705Z,12.93
2018-07-14T05:44:12.833Z,7.90
2018-07-14T05:46:40.996Z,6.90
2018-07-14T05:49:09.146Z,6.60
2018-07-14T05:51:37.291Z,6.83
2018-07-14T05:54:15.474Z,6.60
2018-07-14T05:56:50.173Z,6.30
2018-07-14T05:59:18.804Z,6.80
2018-07-14T06:01:46.933Z,6.27
2018-07-14T06:04:15.062Z,5.90
2018-07-14T06:06:43.226Z,7.53
2018-07-14T06:09:11.357Z,6.67
2018-07-14T06:11:39.489Z,7.63
2018-07-14T06:14:07.676Z,8.00
2018-07-14T06:16:35.773Z,8.20
2018-07-14T06:19:03.913Z,7.80
2018-07-14T06:21:32.089Z,7.83
2018-07-14T06:24:00.228Z,10.23
2018-07-14T06:26:28.363Z,8.23
2018-07-14T06:28:56.525Z,7.13
2018-07-14T06:31:24.667Z,7.43
2018-07-14T06:33:52.801Z,7.03
2018-07-14T06:36:21.149Z,6.23
2018-07-14T06:38:49.292Z,6.33
2018-07-14T06:41:17.456Z,5.50
2018-07-14T06:43:46.113Z,5.80
2018-07-14T06:46:14.243Z,4.80
2018-07-14T06:48:42.378Z,5.37
2018-07-14T06:51:10.536Z,5.20
2018-07-14T06:53:38.821Z,7.27
2018-07-14T06:56:08.799Z,5.87
2018-07-14T06:58:36.921Z,6.13
2018-07-14T07:01:05.047Z,5.43
2018-07-14T07:03:33.258Z,5.37
2018-07-14T07:06:01.391Z,6.20
2018-07-14T07:08:29.517Z,4.90
2018-07-14T07:10:57.656Z,5.13
2018-07-14T07:13:25.790Z,4.63
2018-07-14T07:15:53.914Z,5.00
2018-07-14T07:18:22.080Z,4.80
2018-07-14T07:20:50.250Z,5.40
2018-07-14T07:23:18.371Z,10.33
2018-07-14T07:25:47.000Z,4.93
2018-07-14T07:28:15.128Z,4.43
2018-07-14T07:30:43.246Z,4.60
2018-07-14T07:33:11.385Z,3.83
2018-07-14T07:35:39.500Z,3.90
2018-07-14T07:38:07.633Z,4.00
2018-07-14T07:40:35.776Z,4.53
2018-07-14T07:43:03.899Z,3.40
2018-07-14T07:45:32.027Z,3.97
2018-07-14T07:48:00.931Z,3.97
2018-07-14T07:50:29.061Z,3.93
2018-07-14T07:52:57.181Z,4.20
2018-07-14T07:55:25.319Z,3.70
2018-07-14T07:57:54.019Z,3.50
2018-07-14T08:00:23.151Z,3.67
2018-07-14T08:02:51.287Z,3.40
2018-07-14T08:05:19.409Z,3.43
2018-07-14T08:07:47.633Z,3.27
2018-07-14T08:10:15.832Z,3.67
2018-07-14T08:12:43.962Z,2.90
2018-07-14T08:15:12.149Z,3.37
2018-07-14T08:17:40.302Z,3.13
2018-07-14T08:20:08.434Z,5.33
2018-07-14T08:22:36.606Z,4.27
2018-07-14T08:25:04.733Z,2.80
2018-07-14T08:27:32.923Z,2.93
2018-07-14T08:30:01.998Z,3.53
2018-07-14T08:32:30.188Z,2.77
2018-07-14T08:34:58.375Z,3.00
2018-07-14T08:37:26.521Z,2.67
2018-07-14T08:39:54.428Z,2.50
2018-07-14T08:42:22.574Z,2.40
2018-07-14T08:44:50.731Z,2.80
2018-07-14T08:47:18.856Z,2.70
2018-07-14T08:49:46.995Z,2.83
2018-07-14T08:52:15.255Z,2.40
2018-07-14T08:54:44.477Z,3.03
2018-07-14T08:57:12.609Z,3.33
2018-07-14T08:59:41.444Z,3.00
2018-07-14T09:02:09.569Z,2.80
2018-07-14T09:04:37.706Z,3.10
2018-07-14T09:07:06.294Z,3.00
2018-07-14T09:09:34.436Z,2.57
2018-07-14T09:12:02.578Z,2.20
2018-07-14T09:14:31.314Z,1.97
2018-07-14T09:16:59.473Z,2.67
2018-07-14T09:19:27.628Z,2.30
2018-07-14T09:21:55.777Z,2.63
2018-07-14T09:24:23.908Z,2.50
2018-07-14T09:26:53.087Z,2.60
2018-07-14T09:29:21.255Z,2.67
2018-07-14T09:31:49.382Z,2.37
2018-07-14T09:34:17.521Z,1.97
2018-07-14T09:36:46.461Z,2.30
2018-07-14T09:39:14.598Z,2.27
2018-07-14T09:41:42.744Z,2.30
2018-07-14T09:44:10.870Z,2.30
2018-07-14T09:46:39.013Z,2.23
2018-07-14T09:49:07.177Z,2.43
2018-07-14T09:51:36.261Z,2.63
2018-07-14T09:54:06.439Z,2.60
2018-07-14T09:56:34.575Z,2.00
2018-07-14T09:59:02.712Z,2.23
2018-07-14T10:01:41.143Z,1.97
2018-07-14T10:04:09.266Z,2.30
2018-07-14T10:06:37.391Z,2.30
2018-07-14T10:09:06.288Z,2.50
2018-07-14T10:11:34.401Z,2.73
2018-07-14T10:14:02.541Z,2.33
2018-07-14T10:16:31.065Z,2.80
2018-07-14T10:18:59.197Z,2.47
2018-07-14T10:21:27.338Z,2.50
2018-07-14T10:23:55.490Z,2.33
2018-07-14T10:26:23.638Z,2.30
2018-07-14T10:28:52.571Z,2.27
2018-07-14T10:31:20.702Z,2.63
2018-07-14T10:33:48.904Z,2.70
2018-07-14T10:36:16.966Z,2.77
2018-07-14T10:38:45.468Z,2.80
2018-07-14T10:41:13.574Z,2.90
2018-07-14T10:43:41.695Z,2.87
2018-07-14T10:46:09.846Z,2.80
2018-07-14T10:48:44.733Z,4.00
2018-07-14T10:51:12.865Z,2.80
2018-07-14T10:53:41.009Z,2.30
2018-07-14T10:56:09.161Z,3.00
2018-07-14T10:58:37.350Z,7.17
2018-07-14T11:01:05.537Z,9.63
2018-07-14T11:03:34.200Z,3.37
2018-07-14T11:06:02.345Z,2.70
2018-07-14T11:08:30.460Z,2.60
2018-07-14T11:10:58.760Z,2.43
2018-07-14T11:13:26.895Z,2.40
2018-07-14T11:15:55.038Z,2.30
2018-07-14T11:18:23.873Z,2.50
2018-07-14T11:23:26.457Z,2.00
2018-07-14T11:25:54.593Z,2.50
2018-07-14T11:28:24.718Z,2.97
2018-07-14T11:30:52.849Z,2.00
2018-07-14T11:33:21.013Z,2.63
2018-07-14T11:35:49.168Z,2.00
2018-07-14T11:38:17.296Z,2.50
2018-07-14T11:40:45.446Z,2.53
2018-07-14T11:43:13.624Z,1.97
2018-07-14T11:45:41.760Z,3.00
2018-07-14T11:48:09.892Z,2.20
2018-07-14T11:50:39.057Z,2.47
2018-07-14T11:53:07.205Z,2.60
2018-07-14T11:55:35.356Z,2.00
2018-07-14T11:58:03.502Z,2.17
2018-07-14T12:00:31.650Z,2.10
2018-07-14T12:02:59.777Z,2.33
2018-07-14T12:05:28.997Z,2.60
2018-07-14T12:07:57.129Z,2.53
2018-07-14T12:10:26.262Z,2.10
2018-07-14T12:12:54.400Z,2.33
2018-07-14T12:15:22.524Z,2.40
2018-07-14T12:17:50.666Z,2.07
2018-07-14T12:20:18.825Z,1.93
2018-07-14T12:22:47.985Z,2.67
2018-07-14T12:25:16.169Z,2.50
2018-07-14T12:27:45.216Z,2.47
2018-07-14T12:30:13.368Z,2.30
2018-07-14T12:32:41.551Z,2.37
2018-07-14T12:35:09.707Z,2.60
2018-07-14T12:37:37.840Z,2.20
2018-07-14T12:40:05.968Z,2.60
2018-07-14T12:42:35.173Z,2.67
2018-07-14T12:45:03.333Z,2.30
2018-07-14T12:47:31.478Z,2.50
2018-07-14T12:50:00.289Z,2.67
2018-07-14T12:52:28.413Z,2.60
2018-07-14T12:54:56.580Z,2.70
2018-07-14T12:57:24.769Z,2.27
2018-07-14T12:59:52.894Z,2.90
2018-07-14T13:02:21.044Z,2.43
2018-07-14T13:04:49.214Z,2.97
2018-07-14T13:07:18.581Z,9.70
2018-07-14T13:09:46.717Z,7.00
2018-07-14T13:12:15.373Z,12.07
2018-07-14T13:14:43.496Z,2.70
2018-07-14T13:17:11.842Z,2.47
2018-07-14T13:19:40.023Z,2.50
2018-07-14T13:22:08.177Z,2.30
2018-07-14T13:24:36.298Z,2.63
2018-07-14T13:27:04.786Z,2.33
2018-07-14T13:29:32.952Z,2.57
2018-07-14T13:32:01.119Z,2.40
2018-07-14T13:34:29.811Z,4.07
2018-07-14T13:36:57.960Z,2.83
2018-07-14T13:39:26.091Z,3.47
2018-07-14T13:41:54.266Z,1.90
2018-07-14T13:44:22.505Z,2.83
2018-07-14T13:46:50.617Z,3.20
2018-07-14T13:49:18.760Z,2.33
2018-07-14T13:51:46.897Z,2.60
2018-07-14T13:54:15.025Z,2.40
2018-07-14T13:56:43.670Z,2.10
2018-07-14T13:59:11.802Z,2.40
2018-07-14T14:01:39.954Z,2.70
2018-07-14T14:04:08.109Z,2.20
2018-07-14T14:06:36.292Z,2.50
2018-07-14T14:09:06.182Z,2.80
2018-07-14T14:11:34.306Z,1.83
2018-07-14T14:14:02.435Z,2.17
2018-07-14T14:16:30.596Z,2.20
2018-07-14T14:18:58.715Z,2.50
2018-07-14T14:21:27.511Z,2.17
2018-07-14T14:23:55.709Z,2.50
2018-07-14T14:26:23.933Z,2.80
2018-07-14T14:28:52.104Z,2.20
2018-07-14T14:31:20.253Z,2.50
2018-07-14T14:33:48.382Z,1.93
2018-07-14T14:36:16.515Z,2.90
2018-07-14T14:38:44.728Z,2.50
2018-07-14T14:41:12.882Z,2.20
2018-07-14T14:43:41.020Z,2.03
2018-07-14T14:46:09.271Z,2.50
2018-07-14T14:48:37.510Z,2.50
2018-07-14T14:51:05.641Z,2.30
2018-07-14T14:53:33.808Z,2.60
2018-07-14T14:56:01.945Z,3.70
2018-07-14T14:58:30.070Z,3.90
2018-07-14T15:00:58.298Z,1.97
2018-07-14T15:03:26.436Z,2.30
2018-07-14T15:05:54.564Z,2.60
2018-07-14T15:08:22.730Z,2.10
2018-07-14T15:11:01.661Z,2.20
2018-07-14T15:13:29.809Z,2.03
2018-07-14T15:15:58.929Z,6.93
2018-07-14T15:18:27.052Z,2.40
2018-07-14T15:20:55.253Z,2.53
2018-07-14T15:23:23.381Z,2.07
2018-07-14T15:25:51.633Z,2.20
2018-07-14T15:28:19.676Z,2.40
2018-07-14T15:30:47.804Z,2.23
2018-07-14T15:33:16.061Z,2.10
2018-07-14T15:35:44.067Z,2.30
2018-07-14T15:38:12.193Z,2.30
2018-07-14T15:40:40.360Z,2.47
2018-07-14T15:43:08.520Z,2.27
2018-07-14T15:45:36.671Z,2.47
2018-07-14T15:48:04.946Z,2.87
2018-07-14T15:50:33.091Z,2.23
2018-07-14T15:53:01.848Z,3.93
2018-07-14T15:55:29.969Z,3.97
2018-07-14T15:57:58.104Z,2.40
2018-07-14T16:00:26.251Z,2.20
2018-07-14T16:02:54.377Z,1.97
2018-07-14T16:05:22.557Z,2.00
2018-07-14T16:07:50.717Z,2.00
2018-07-14T16:10:18.836Z,2.30
2018-07-14T16:12:47.520Z,2.00
2018-07-14T16:15:15.663Z,2.30
2018-07-14T16:17:43.782Z,2.67
2018-07-14T16:20:11.946Z,2.60
2018-07-14T16:22:40.094Z,2.27
2018-07-14T16:25:08.258Z,2.40
2018-07-14T16:27:36.938Z,2.20
2018-07-14T16:30:05.119Z,2.40
2018-07-14T16:32:33.307Z,3.00
2018-07-14T16:35:01.472Z,2.50
2018-07-14T16:37:29.637Z,4.77
2018-07-14T16:39:57.755Z,3.30
2018-07-14T16:42:25.890Z,2.33
2018-07-14T16:44:54.037Z,2.47
2018-07-14T16:47:22.171Z,2.47
2018-07-14T16:49:50.349Z,2.30
2018-07-14T16:52:19.485Z,2.13
2018-07-14T16:54:47.617Z,2.17
2018-07-14T16:57:15.783Z,2.40
2018-07-14T16:59:44.946Z,2.30
2018-07-14T17:02:13.080Z,2.30
2018-07-14T17:04:41.278Z,2.13
2018-07-14T17:07:09.398Z,2.27
2018-07-14T17:09:37.528Z,2.53
2018-07-14T17:12:06.509Z,3.60
2018-07-14T17:14:35.223Z,2.27
2018-07-14T17:17:03.351Z,2.73
2018-07-14T17:19:31.506Z,3.00
2018-07-14T17:21:59.645Z,2.47
2018-07-14T17:24:28.491Z,2.93
2018-07-14T17:26:56.674Z,2.50
2018-07-14T17:29:24.787Z,2.23
2018-07-14T17:31:52.926Z,2.60
2018-07-14T17:34:22.005Z,2.93
2018-07-14T17:36:50.135Z,2.50
2018-07-14T17:39:18.277Z,2.67
2018-07-14T17:41:46.473Z,2.50
2018-07-14T17:44:14.592Z,2.40
2018-07-14T17:46:42.719Z,2.33
2018-07-14T17:49:10.867Z,2.60
2018-07-14T17:51:39.044Z,2.47
2018-07-14T17:54:07.119Z,2.70
2018-07-14T17:56:37.342Z,3.00
2018-07-14T17:59:05.528Z,2.93
2018-07-14T18:01:33.690Z,2.70
2018-07-14T18:04:02.726Z,2.80
2018-07-14T18:06:30.866Z,2.83
2018-07-14T18:08:59.001Z,3.00
2018-07-14T18:11:28.153Z,2.97
2018-07-14T18:13:56.297Z,4.13
2018-07-14T18:16:34.686Z,8.47
2018-07-14T18:19:02.756Z,5.57
2018-07-14T18:21:30.925Z,3.40
2018-07-14T18:23:59.089Z,3.23
2018-07-14T18:26:27.221Z,2.53
2018-07-14T18:28:55.407Z,3.20
2018-07-14T18:31:23.549Z,2.50
2018-07-14T18:33:51.693Z,2.97
2018-07-14T18:36:19.912Z,3.13
2018-07-14T18:38:48.210Z,2.90
2018-07-14T18:41:16.363Z,3.23
2018-07-14T18:43:44.510Z,3.03
2018-07-14T18:46:12.647Z,2.97
2018-07-14T18:48:40.774Z,2.93
2018-07-14T18:51:09.202Z,3.40
2018-07-14T18:53:37.403Z,2.63
2018-07-14T18:56:05.587Z,2.80
2018-07-14T18:58:33.714Z,3.00
2018-07-14T19:01:02.282Z,4.00
2018-07-14T19:03:30.405Z,3.93
2018-07-14T19:05:58.529Z,3.40
2018-07-14T19:08:26.681Z,3.10
2018-07-14T19:10:54.866Z,3.37
2018-07-14T19:13:22.993Z,2.73
2018-07-14T19:15:51.349Z,2.63
2018-07-14T19:18:20.480Z,2.80
2018-07-14T19:20:48.617Z,2.83
2018-07-14T19:23:17.589Z,3.20
2018-07-14T19:25:46.200Z,2.93
2018-07-14T19:28:14.261Z,3.30
2018-07-14T19:30:42.411Z,3.03
2018-07-14T19:33:10.550Z,3.23
2018-07-14T19:35:38.688Z,2.90
2018-07-14T19:38:06.885Z,2.60
2018-07-14T19:40:35.039Z,2.77
2018-07-14T19:43:03.169Z,4.40
2018-07-14T19:45:31.384Z,3.20
2018-07-14T19:47:59.522Z,3.67
2018-07-14T19:50:27.648Z,3.30
2018-07-14T19:52:55.821Z,4.10
2018-07-14T19:55:23.961Z,4.23
2018-07-14T19:57:52.089Z,3.30
2018-07-14T20:00:20.348Z,3.00
2018-07-14T20:02:48.513Z,2.93
2018-07-14T20:05:16.630Z,3.23
2018-07-14T20:07:45.614Z,3.80
2018-07-14T20:10:13.742Z,3.70
2018-07-14T20:12:41.877Z,3.40
2018-07-14T20:15:10.006Z,3.50
2018-07-14T20:17:38.137Z,3.47
2018-07-14T20:20:08.427Z,3.53
2018-07-14T20:22:38.583Z,3.30
2018-07-14T20:25:06.717Z,3.30
2018-07-14T20:27:35.857Z,3.60
2018-07-14T20:30:04.101Z,3.77
2018-07-14T20:32:32.187Z,3.50
2018-07-14T20:35:00.364Z,3.60
2018-07-14T20:37:28.451Z,3.80
2018-07-14T20:39:56.594Z,4.07
2018-07-14T20:42:24.724Z,4.30
2018-07-14T20:44:52.844Z,3.73
2018-07-14T20:47:21.018Z,4.07
2018-07-14T20:49:49.156Z,4.43
2018-07-14T20:52:17.302Z,5.17
2018-07-14T20:54:46.259Z,4.30
2018-07-14T20:57:14.381Z,4.00
2018-07-14T20:59:42.541Z,3.93
2018-07-14T21:02:10.675Z,4.43
2018-07-14T21:04:38.813Z,4.20
2018-07-14T21:07:07.112Z,4.07
2018-07-14T21:09:36.081Z,4.40
2018-07-14T21:12:04.282Z,4.20
2018-07-14T21:14:32.411Z,3.83
2018-07-14T21:17:00.580Z,4.40
2018-07-14T21:19:28.733Z,4.50
2018-07-14T21:21:57.482Z,4.03
2018-07-14T21:24:25.677Z,4.30
2018-07-14T21:26:53.834Z,4.03
2018-07-14T21:29:21.973Z,4.13
2018-07-14T21:34:24.981Z,3.57
2018-07-14T21:36:53.394Z,4.50
2018-07-14T21:39:21.528Z,4.03
2018-07-14T21:41:49.678Z,4.10
2018-07-14T21:44:17.829Z,4.67
2018-07-14T21:46:45.967Z,4.40
2018-07-14T21:49:14.121Z,4.53
2018-07-14T21:51:44.273Z,4.40
2018-07-14T21:54:12.433Z,3.80
2018-07-14T21:56:40.544Z,4.27
2018-07-14T21:59:08.776Z,4.10
2018-07-14T22:01:42.282Z,4.30
2018-07-14T22:04:10.566Z,4.00
2018-07-14T22:06:38.700Z,3.97
2018-07-14T22:09:06.948Z,4.60
2018-07-14T22:11:36.110Z,4.27
2018-07-14T22:14:04.317Z,4.97
2018-07-14T22:16:32.558Z,4.40
2018-07-14T22:19:00.692Z,4.50
2018-07-14T22:21:28.816Z,4.40
2018-07-14T22:23:57.536Z,4.03
2018-07-14T22:26:25.845Z,5.13
2018-07-14T22:28:54.013Z,4.83
2018-07-14T22:31:22.275Z,4.43
2018-07-14T22:33:50.413Z,4.07
2018-07-14T22:36:18.545Z,4.37
2018-07-14T22:38:47.078Z,4.93
2018-07-14T22:41:15.229Z,4.67
2018-07-14T22:43:43.351Z,5.00
2018-07-14T22:46:11.817Z,4.70
2018-07-14T22:48:39.960Z,4.80
2018-07-14T22:51:08.134Z,4.40
2018-07-14T22:53:36.299Z,4.47
2018-07-14T22:56:04.483Z,4.50
2018-07-14T22:58:32.625Z,4.67
2018-07-14T23:01:01.305Z,4.60
2018-07-14T23:03:29.444Z,4.90
2018-07-14T23:05:57.576Z,5.00
2018-07-14T23:08:25.721Z,4.37
2018-07-14T23:10:53.857Z,5.27
2018-07-14T23:13:21.988Z,4.30
2018-07-14T23:15:50.133Z,4.80
2018-07-14T23:18:18.272Z,4.23
2018-07-14T23:20:46.412Z,4.60
2018-07-14T23:23:15.276Z,4.50
2018-07-14T23:25:44.277Z,4.60
2018-07-14T23:28:12.405Z,4.50
2018-07-14T23:30:40.567Z,4.87
2018-07-14T23:33:08.705Z,4.70
2018-07-14T23:35:36.841Z,4.77
2018-07-14T23:38:04.997Z,4.27
2018-07-14T23:40:33.130Z,4.80
2018-07-14T23:43:01.268Z,5.07
2018-07-14T23:45:29.927Z,5.33
2018-07-14T23:47:58.069Z,4.50
2018-07-14T23:50:26.209Z,5.07
2018-07-14T23:52:54.354Z,4.50
2018-07-14T23:55:22.517Z,4.53
2018-07-14T23:57:50.637Z,4.50
